< < Back
Terminal Aerodrome Forecast


Current Version              Previous Versions:   1  2  3  4  5  6  7  8  9  

Terminal Aerodrome Forecast

757
FTUS42 KTAE 112331
TAFVLD
TAF
KVLD 112331Z 1200/1224 23007KT P6SM SKC
     FM120900 00000KT 3SM BR SCT003 SCT015
     FM121500 25010G15KT P6SM SCT050=



Latest METAR

855
SAUS70 KWBC 112300 RRF
MTRVLD
METAR KVLD 112253Z VRB06G16KT 10SM CLR 16/10 A3017 RMK AO2 SLP226
T01610100


USA.gov is the U.S. government's official web portal to all federal, state and local government web resources and services.